Pagrindinis puslapis
METAR-TAF:

METAR-TAF

Oro uostai :

Jendouba, Tunisas

platuma: 36-29N, ilguma: 008-48E, Aukštis: 143 m

Dabartinis oras

Ataskaita buvo paskelbta 29 minutes, ne 14:00 UTC
Vėjas 11 kt iš Vakarų/Pietvakarių, svyruoja nuo Pietų/Pietvakarių ir Vakarų
Temperatūra 16°C
Drėgmė 51%
Slėgis 1014 hPa
Matomumas 10 km arba daugiau
Išsisklaidę debesys ne aukštis 2000 ft
Išsisklaidę debesys ne aukštis 3000 ft

METAR: DTTN 171400Z 25011KT 210V280 9999 SCT020 SCT030 16/06 Q1014

Laikas: 15:29 (14:29 UTC)


TAF: trūkstamas

Orai ataskaitas ir orų prognozės (METAR, TAF).

turimą stotys yra geltonos ir raudonos taškus žemėlapyje.

Perkelti pele per norėdami pamatyti stoties vardą.

Tada spustelėkite, norėdami matyti oro stebėjimo ir prognozės.

Norėdami pakeisti žemėlapį: spustelėkite ant žalios mygtukų su juodo kryžiaus žemyn,; žalią mygtuką su brūkšneliu, jei norite nutolinti; arba žalių rodyklių gretimoms žemėlapius.


METAR-TAF: